Terminal Aerodrome Forecast
Issued by NWS Wilmington, NC

Home | Current Version | Previous Version | Text Only | Print | Product List | Glossary On
Versions: 1 2 3 4 5 6 7 8 9 10 11 12 13 14 15 16
000
FTUS42 KILM 272335
TAFILM
TAF
KILM 272335Z 2800/2824 12004KT P6SM BKN150
     FM280600 VRB03KT P6SM VCSH BKN120
     FM280900 16005KT P6SM OVC080 PROB30 2809/2813 2SM -SHRA BR
      OVC025
     FM281300 17005KT P6SM BKN045 PROB30 2813/2814 4SM -SHRA BR
      OVC025
     FM281600 18009KT P6SM BKN060=

USA.gov is the U.S. government's official web portal to all federal, state and local government web resources and services.